sensor_id;sensor_type;location;lat;lon;timestamp;P1;durP1;ratioP1;P2;durP2;ratioP2
69703;SDS011;56967;43.538;-5.646;2023-02-18T00:00:14;29.10;;;18.10;;
69703;SDS011;56967;43.538;-5.646;2023-02-18T00:02:41;30.30;;;17.77;;
69703;SDS011;56967;43.538;-5.646;2023-02-18T00:05:06;32.47;;;17.85;;
69703;SDS011;56967;43.538;-5.646;2023-02-18T00:07:35;27.08;;;16.23;;
69703;SDS011;56967;43.538;-5.646;2023-02-18T00:10:01;25.52;;;16.58;;
69703;SDS011;56967;43.538;-5.646;2023-02-18T00:12:27;33.53;;;17.65;;
69703;SDS011;56967;43.538;-5.646;2023-02-18T00:14:52;26.90;;;16.50;;
69703;SDS011;56967;43.538;-5.646;2023-02-18T00:17:17;69.18;;;37.90;;
69703;SDS011;56967;43.538;-5.646;2023-02-18T00:19:43;27.75;;;18.67;;
69703;SDS011;56967;43.538;-5.646;2023-02-18T00:22:08;29.05;;;17.40;;
69703;SDS011;56967;43.538;-5.646;2023-02-18T00:24:33;29.60;;;17.08;;
69703;SDS011;56967;43.538;-5.646;2023-02-18T00:26:59;25.67;;;16.30;;
69703;SDS011;56967;43.538;-5.646;2023-02-18T00:29:24;32.38;;;17.50;;
69703;SDS011;56967;43.538;-5.646;2023-02-18T00:31:49;28.30;;;16.30;;
69703;SDS011;56967;43.538;-5.646;2023-02-18T00:34:15;30.83;;;18.15;;
69703;SDS011;56967;43.538;-5.646;2023-02-18T00:36:40;29.20;;;17.55;;
69703;SDS011;56967;43.538;-5.646;2023-02-18T00:39:06;29.35;;;17.67;;
69703;SDS011;56967;43.538;-5.646;2023-02-18T00:41:32;33.72;;;17.90;;
69703;SDS011;56967;43.538;-5.646;2023-02-18T00:43:58;30.40;;;16.83;;
69703;SDS011;56967;43.538;-5.646;2023-02-18T00:46:23;23.67;;;16.50;;
69703;SDS011;56967;43.538;-5.646;2023-02-18T00:48:49;26.23;;;15.80;;
69703;SDS011;56967;43.538;-5.646;2023-02-18T00:51:14;27.48;;;16.05;;
69703;SDS011;56967;43.538;-5.646;2023-02-18T00:53:40;25.58;;;16.52;;
69703;SDS011;56967;43.538;-5.646;2023-02-18T00:56:05;30.40;;;18.33;;
69703;SDS011;56967;43.538;-5.646;2023-02-18T00:58:31;26.52;;;15.35;;
69703;SDS011;56967;43.538;-5.646;2023-02-18T01:00:57;30.42;;;17.08;;
69703;SDS011;56967;43.538;-5.646;2023-02-18T01:03:22;28.60;;;16.38;;
69703;SDS011;56967;43.538;-5.646;2023-02-18T01:05:48;27.75;;;15.95;;
69703;SDS011;56967;43.538;-5.646;2023-02-18T01:08:15;23.10;;;15.07;;
69703;SDS011;56967;43.538;-5.646;2023-02-18T01:10:41;25.85;;;14.30;;
69703;SDS011;56967;43.538;-5.646;2023-02-18T01:13:06;21.48;;;13.82;;
69703;SDS011;56967;43.538;-5.646;2023-02-18T01:15:32;24.33;;;14.65;;
69703;SDS011;56967;43.538;-5.646;2023-02-18T01:17:58;29.45;;;16.50;;
69703;SDS011;56967;43.538;-5.646;2023-02-18T01:20:25;23.27;;;14.65;;
69703;SDS011;56967;43.538;-5.646;2023-02-18T01:22:50;27.35;;;16.30;;
69703;SDS011;56967;43.538;-5.646;2023-02-18T01:25:16;29.73;;;17.48;;
69703;SDS011;56967;43.538;-5.646;2023-02-18T01:27:41;21.52;;;14.15;;
69703;SDS011;56967;43.538;-5.646;2023-02-18T01:30:07;25.52;;;15.75;;
69703;SDS011;56967;43.538;-5.646;2023-02-18T01:32:33;26.77;;;15.77;;
69703;SDS011;56967;43.538;-5.646;2023-02-18T01:35:02;28.77;;;15.45;;
69703;SDS011;56967;43.538;-5.646;2023-02-18T01:37:28;33.97;;;16.00;;
69703;SDS011;56967;43.538;-5.646;2023-02-18T01:39:53;21.60;;;15.30;;
69703;SDS011;56967;43.538;-5.646;2023-02-18T01:42:23;23.88;;;14.68;;
69703;SDS011;56967;43.538;-5.646;2023-02-18T01:44:49;22.48;;;13.88;;
69703;SDS011;56967;43.538;-5.646;2023-02-18T01:47:15;26.42;;;14.82;;
69703;SDS011;56967;43.538;-5.646;2023-02-18T01:49:41;23.05;;;14.63;;
69703;SDS011;56967;43.538;-5.646;2023-02-18T01:52:11;25.80;;;15.35;;
69703;SDS011;56967;43.538;-5.646;2023-02-18T01:54:40;26.30;;;15.05;;
69703;SDS011;56967;43.538;-5.646;2023-02-18T01:57:08;25.73;;;14.25;;
69703;SDS011;56967;43.538;-5.646;2023-02-18T01:59:39;26.73;;;16.10;;
69703;SDS011;56967;43.538;-5.646;2023-02-18T02:02:07;22.13;;;15.43;;
69703;SDS011;56967;43.538;-5.646;2023-02-18T02:04:34;27.17;;;16.08;;
69703;SDS011;56967;43.538;-5.646;2023-02-18T02:06:59;23.83;;;14.68;;
69703;SDS011;56967;43.538;-5.646;2023-02-18T02:09:25;21.27;;;14.48;;
69703;SDS011;56967;43.538;-5.646;2023-02-18T02:24:48;25.30;;;17.23;;
69703;SDS011;56967;43.538;-5.646;2023-02-18T02:41:30;24.08;;;13.65;;
69703;SDS011;56967;43.538;-5.646;2023-02-18T02:46:51;21.63;;;13.90;;
69703;SDS011;56967;43.538;-5.646;2023-02-18T02:49:20;22.23;;;13.55;;
69703;SDS011;56967;43.538;-5.646;2023-02-18T02:54:26;26.02;;;14.43;;
69703;SDS011;56967;43.538;-5.646;2023-02-18T02:57:08;25.45;;;14.23;;
69703;SDS011;56967;43.538;-5.646;2023-02-18T02:59:35;21.05;;;13.65;;
69703;SDS011;56967;43.538;-5.646;2023-02-18T03:15:06;25.67;;;13.98;;
69703;SDS011;56967;43.538;-5.646;2023-02-18T03:20:09;22.00;;;13.00;;
69703;SDS011;56967;43.538;-5.646;2023-02-18T03:22:38;21.60;;;13.35;;
69703;SDS011;56967;43.538;-5.646;2023-02-18T03:25:04;26.67;;;14.60;;
69703;SDS011;56967;43.538;-5.646;2023-02-18T03:27:31;22.13;;;13.45;;
69703;SDS011;56967;43.538;-5.646;2023-02-18T03:30:02;23.02;;;12.90;;
69703;SDS011;56967;43.538;-5.646;2023-02-18T03:32:28;21.48;;;12.45;;
69703;SDS011;56967;43.538;-5.646;2023-02-18T03:34:56;24.42;;;14.05;;
69703;SDS011;56967;43.538;-5.646;2023-02-18T03:37:24;23.63;;;12.95;;
69703;SDS011;56967;43.538;-5.646;2023-02-18T03:39:52;19.10;;;12.82;;
69703;SDS011;56967;43.538;-5.646;2023-02-18T03:42:19;25.83;;;13.18;;
69703;SDS011;56967;43.538;-5.646;2023-02-18T03:44:49;23.85;;;14.10;;
69703;SDS011;56967;43.538;-5.646;2023-02-18T03:47:14;21.75;;;13.95;;
69703;SDS011;56967;43.538;-5.646;2023-02-18T03:49:39;24.77;;;14.00;;
69703;SDS011;56967;43.538;-5.646;2023-02-18T03:52:05;29.48;;;14.13;;
69703;SDS011;56967;43.538;-5.646;2023-02-18T03:54:30;21.13;;;13.52;;
69703;SDS011;56967;43.538;-5.646;2023-02-18T03:56:55;20.15;;;13.23;;
69703;SDS011;56967;43.538;-5.646;2023-02-18T03:59:21;23.25;;;13.40;;
69703;SDS011;56967;43.538;-5.646;2023-02-18T04:01:46;20.02;;;13.40;;
69703;SDS011;56967;43.538;-5.646;2023-02-18T04:04:11;25.05;;;13.85;;
69703;SDS011;56967;43.538;-5.646;2023-02-18T04:06:37;23.98;;;14.25;;
69703;SDS011;56967;43.538;-5.646;2023-02-18T04:09:02;24.17;;;13.27;;
69703;SDS011;56967;43.538;-5.646;2023-02-18T04:11:33;19.42;;;12.60;;
69703;SDS011;56967;43.538;-5.646;2023-02-18T04:13:58;21.13;;;13.18;;
69703;SDS011;56967;43.538;-5.646;2023-02-18T04:16:23;26.60;;;13.27;;
69703;SDS011;56967;43.538;-5.646;2023-02-18T04:18:49;20.52;;;13.32;;
69703;SDS011;56967;43.538;-5.646;2023-02-18T04:21:14;27.58;;;14.15;;
69703;SDS011;56967;43.538;-5.646;2023-02-18T04:23:39;18.52;;;13.32;;
69703;SDS011;56967;43.538;-5.646;2023-02-18T04:26:05;18.42;;;13.60;;
69703;SDS011;56967;43.538;-5.646;2023-02-18T04:28:30;22.92;;;14.10;;
69703;SDS011;56967;43.538;-5.646;2023-02-18T04:30:56;22.73;;;13.50;;
69703;SDS011;56967;43.538;-5.646;2023-02-18T04:33:21;23.70;;;14.43;;
69703;SDS011;56967;43.538;-5.646;2023-02-18T04:35:47;21.85;;;14.02;;
69703;SDS011;56967;43.538;-5.646;2023-02-18T04:38:12;25.25;;;14.00;;
69703;SDS011;56967;43.538;-5.646;2023-02-18T04:40:37;21.52;;;14.05;;
69703;SDS011;56967;43.538;-5.646;2023-02-18T04:43:03;21.02;;;13.52;;
69703;SDS011;56967;43.538;-5.646;2023-02-18T04:45:28;20.48;;;13.75;;
69703;SDS011;56967;43.538;-5.646;2023-02-18T04:47:54;24.05;;;14.38;;
69703;SDS011;56967;43.538;-5.646;2023-02-18T04:50:19;21.92;;;14.40;;
69703;SDS011;56967;43.538;-5.646;2023-02-18T04:52:45;22.50;;;13.77;;
69703;SDS011;56967;43.538;-5.646;2023-02-18T04:55:10;21.30;;;12.90;;
69703;SDS011;56967;43.538;-5.646;2023-02-18T04:57:36;21.05;;;12.93;;
69703;SDS011;56967;43.538;-5.646;2023-02-18T05:00:02;22.65;;;13.45;;
69703;SDS011;56967;43.538;-5.646;2023-02-18T05:02:30;18.75;;;11.73;;
69703;SDS011;56967;43.538;-5.646;2023-02-18T05:04:56;19.88;;;11.85;;
69703;SDS011;56967;43.538;-5.646;2023-02-18T05:07:21;19.00;;;12.25;;
69703;SDS011;56967;43.538;-5.646;2023-02-18T05:09:46;19.52;;;12.40;;
69703;SDS011;56967;43.538;-5.646;2023-02-18T05:12:12;19.48;;;12.73;;
69703;SDS011;56967;43.538;-5.646;2023-02-18T05:14:37;19.10;;;12.45;;
69703;SDS011;56967;43.538;-5.646;2023-02-18T05:17:02;20.42;;;12.45;;
69703;SDS011;56967;43.538;-5.646;2023-02-18T05:19:28;21.35;;;12.52;;
69703;SDS011;56967;43.538;-5.646;2023-02-18T05:21:53;19.98;;;12.73;;
69703;SDS011;56967;43.538;-5.646;2023-02-18T05:24:19;17.77;;;13.07;;
69703;SDS011;56967;43.538;-5.646;2023-02-18T05:26:44;23.35;;;13.05;;
69703;SDS011;56967;43.538;-5.646;2023-02-18T05:29:09;23.70;;;13.48;;
69703;SDS011;56967;43.538;-5.646;2023-02-18T05:31:35;20.52;;;13.57;;
69703;SDS011;56967;43.538;-5.646;2023-02-18T05:34:02;27.02;;;12.95;;
69703;SDS011;56967;43.538;-5.646;2023-02-18T05:36:27;20.92;;;13.18;;
69703;SDS011;56967;43.538;-5.646;2023-02-18T05:38:53;21.92;;;13.23;;
69703;SDS011;56967;43.538;-5.646;2023-02-18T05:41:18;23.20;;;13.38;;
69703;SDS011;56967;43.538;-5.646;2023-02-18T05:43:44;22.10;;;12.90;;
69703;SDS011;56967;43.538;-5.646;2023-02-18T05:46:28;28.88;;;16.27;;
69703;SDS011;56967;43.538;-5.646;2023-02-18T05:48:53;20.92;;;13.05;;
69703;SDS011;56967;43.538;-5.646;2023-02-18T05:51:18;23.63;;;13.43;;
69703;SDS011;56967;43.538;-5.646;2023-02-18T05:53:44;22.27;;;12.45;;
69703;SDS011;56967;43.538;-5.646;2023-02-18T05:56:09;23.35;;;12.25;;
69703;SDS011;56967;43.538;-5.646;2023-02-18T05:58:34;20.75;;;11.95;;
69703;SDS011;56967;43.538;-5.646;2023-02-18T06:01:00;22.45;;;13.43;;
69703;SDS011;56967;43.538;-5.646;2023-02-18T06:03:25;22.88;;;12.32;;
69703;SDS011;56967;43.538;-5.646;2023-02-18T06:05:51;23.92;;;13.82;;
69703;SDS011;56967;43.538;-5.646;2023-02-18T06:08:16;20.70;;;13.77;;
69703;SDS011;56967;43.538;-5.646;2023-02-18T06:10:44;23.17;;;12.95;;
69703;SDS011;56967;43.538;-5.646;2023-02-18T06:13:09;24.25;;;14.52;;
69703;SDS011;56967;43.538;-5.646;2023-02-18T06:15:34;22.33;;;14.23;;
69703;SDS011;56967;43.538;-5.646;2023-02-18T06:18:00;25.42;;;14.70;;
69703;SDS011;56967;43.538;-5.646;2023-02-18T06:20:25;23.85;;;13.88;;
69703;SDS011;56967;43.538;-5.646;2023-02-18T06:22:50;22.00;;;12.55;;
69703;SDS011;56967;43.538;-5.646;2023-02-18T06:25:16;20.75;;;12.77;;
69703;SDS011;56967;43.538;-5.646;2023-02-18T06:27:41;19.55;;;13.18;;
69703;SDS011;56967;43.538;-5.646;2023-02-18T06:30:07;22.10;;;14.60;;
69703;SDS011;56967;43.538;-5.646;2023-02-18T06:32:32;22.83;;;13.13;;
69703;SDS011;56967;43.538;-5.646;2023-02-18T06:34:57;21.50;;;13.52;;
69703;SDS011;56967;43.538;-5.646;2023-02-18T06:37:23;23.90;;;13.60;;
69703;SDS011;56967;43.538;-5.646;2023-02-18T06:39:48;21.45;;;14.80;;
69703;SDS011;56967;43.538;-5.646;2023-02-18T06:42:13;20.92;;;14.27;;
69703;SDS011;56967;43.538;-5.646;2023-02-18T06:44:39;23.95;;;15.23;;
69703;SDS011;56967;43.538;-5.646;2023-02-18T06:47:04;27.17;;;17.58;;
69703;SDS011;56967;43.538;-5.646;2023-02-18T06:49:30;23.65;;;16.73;;
69703;SDS011;56967;43.538;-5.646;2023-02-18T06:51:55;24.77;;;15.88;;
69703;SDS011;56967;43.538;-5.646;2023-02-18T06:54:20;29.63;;;17.27;;
69703;SDS011;56967;43.538;-5.646;2023-02-18T06:56:46;27.30;;;17.02;;
69703;SDS011;56967;43.538;-5.646;2023-02-18T06:59:12;30.58;;;17.08;;
69703;SDS011;56967;43.538;-5.646;2023-02-18T07:01:37;29.80;;;17.40;;
69703;SDS011;56967;43.538;-5.646;2023-02-18T07:04:03;25.73;;;16.80;;
69703;SDS011;56967;43.538;-5.646;2023-02-18T07:06:28;26.55;;;15.80;;
69703;SDS011;56967;43.538;-5.646;2023-02-18T07:08:54;25.88;;;15.38;;
69703;SDS011;56967;43.538;-5.646;2023-02-18T07:11:19;32.05;;;17.10;;
69703;SDS011;56967;43.538;-5.646;2023-02-18T07:13:44;25.95;;;16.77;;
69703;SDS011;56967;43.538;-5.646;2023-02-18T07:16:10;25.98;;;17.10;;
69703;SDS011;56967;43.538;-5.646;2023-02-18T07:18:35;26.75;;;17.55;;
69703;SDS011;56967;43.538;-5.646;2023-02-18T07:21:01;26.35;;;16.88;;
69703;SDS011;56967;43.538;-5.646;2023-02-18T07:23:26;28.27;;;17.58;;
69703;SDS011;56967;43.538;-5.646;2023-02-18T07:25:51;25.30;;;17.25;;
69703;SDS011;56967;43.538;-5.646;2023-02-18T07:28:17;27.48;;;17.80;;
69703;SDS011;56967;43.538;-5.646;2023-02-18T07:30:42;27.45;;;17.50;;
69703;SDS011;56967;43.538;-5.646;2023-02-18T07:33:07;26.08;;;16.58;;
69703;SDS011;56967;43.538;-5.646;2023-02-18T07:35:33;26.98;;;17.23;;
69703;SDS011;56967;43.538;-5.646;2023-02-18T07:37:58;25.50;;;16.55;;
69703;SDS011;56967;43.538;-5.646;2023-02-18T07:40:24;28.70;;;17.33;;
69703;SDS011;56967;43.538;-5.646;2023-02-18T07:42:49;25.15;;;16.63;;
69703;SDS011;56967;43.538;-5.646;2023-02-18T07:45:14;27.85;;;17.05;;
69703;SDS011;56967;43.538;-5.646;2023-02-18T07:47:40;24.70;;;16.17;;
69703;SDS011;56967;43.538;-5.646;2023-02-18T07:50:07;28.60;;;16.63;;
69703;SDS011;56967;43.538;-5.646;2023-02-18T07:52:33;26.08;;;16.38;;
69703;SDS011;56967;43.538;-5.646;2023-02-18T07:54:58;28.55;;;17.25;;
69703;SDS011;56967;43.538;-5.646;2023-02-18T07:57:23;27.70;;;16.55;;
69703;SDS011;56967;43.538;-5.646;2023-02-18T07:59:49;25.98;;;15.93;;
69703;SDS011;56967;43.538;-5.646;2023-02-18T08:02:18;26.38;;;16.55;;
69703;SDS011;56967;43.538;-5.646;2023-02-18T08:04:44;27.00;;;17.17;;
69703;SDS011;56967;43.538;-5.646;2023-02-18T08:07:13;29.58;;;16.85;;
69703;SDS011;56967;43.538;-5.646;2023-02-18T08:09:40;23.05;;;15.27;;
69703;SDS011;56967;43.538;-5.646;2023-02-18T08:12:05;26.95;;;17.70;;
69703;SDS011;56967;43.538;-5.646;2023-02-18T08:14:31;25.73;;;16.50;;
69703;SDS011;56967;43.538;-5.646;2023-02-18T08:16:56;25.77;;;15.88;;
69703;SDS011;56967;43.538;-5.646;2023-02-18T08:19:21;31.05;;;17.55;;
69703;SDS011;56967;43.538;-5.646;2023-02-18T08:21:47;27.17;;;16.92;;
69703;SDS011;56967;43.538;-5.646;2023-02-18T08:24:12;23.17;;;16.25;;
69703;SDS011;56967;43.538;-5.646;2023-02-18T08:26:37;28.45;;;17.50;;
69703;SDS011;56967;43.538;-5.646;2023-02-18T08:29:03;28.70;;;17.30;;
69703;SDS011;56967;43.538;-5.646;2023-02-18T08:31:28;29.00;;;17.13;;
69703;SDS011;56967;43.538;-5.646;2023-02-18T08:33:54;25.40;;;16.95;;
69703;SDS011;56967;43.538;-5.646;2023-02-18T08:36:20;31.95;;;17.33;;
69703;SDS011;56967;43.538;-5.646;2023-02-18T08:38:46;29.13;;;17.73;;
69703;SDS011;56967;43.538;-5.646;2023-02-18T08:41:12;28.23;;;17.02;;
69703;SDS011;56967;43.538;-5.646;2023-02-18T08:43:39;30.08;;;18.02;;
69703;SDS011;56967;43.538;-5.646;2023-02-18T08:46:05;28.85;;;17.02;;
69703;SDS011;56967;43.538;-5.646;2023-02-18T08:48:30;25.88;;;17.67;;
69703;SDS011;56967;43.538;-5.646;2023-02-18T08:50:56;27.77;;;17.65;;
69703;SDS011;56967;43.538;-5.646;2023-02-18T08:53:22;25.55;;;16.23;;
69703;SDS011;56967;43.538;-5.646;2023-02-18T08:55:48;26.90;;;17.92;;
69703;SDS011;56967;43.538;-5.646;2023-02-18T08:58:13;30.77;;;18.05;;
69703;SDS011;56967;43.538;-5.646;2023-02-18T09:00:39;29.95;;;19.00;;
69703;SDS011;56967;43.538;-5.646;2023-02-18T09:03:05;26.40;;;18.25;;
69703;SDS011;56967;43.538;-5.646;2023-02-18T09:05:30;26.90;;;17.20;;
69703;SDS011;56967;43.538;-5.646;2023-02-18T09:07:56;25.90;;;19.05;;
69703;SDS011;56967;43.538;-5.646;2023-02-18T09:10:21;26.33;;;18.33;;
69703;SDS011;56967;43.538;-5.646;2023-02-18T09:12:46;31.77;;;18.25;;
69703;SDS011;56967;43.538;-5.646;2023-02-18T09:15:12;25.67;;;17.45;;
69703;SDS011;56967;43.538;-5.646;2023-02-18T09:17:37;24.48;;;17.35;;
69703;SDS011;56967;43.538;-5.646;2023-02-18T09:20:03;30.75;;;17.60;;
69703;SDS011;56967;43.538;-5.646;2023-02-18T09:22:28;28.75;;;17.98;;
69703;SDS011;56967;43.538;-5.646;2023-02-18T09:24:54;28.33;;;19.50;;
69703;SDS011;56967;43.538;-5.646;2023-02-18T09:27:19;28.33;;;19.27;;
69703;SDS011;56967;43.538;-5.646;2023-02-18T09:29:45;29.52;;;19.08;;
69703;SDS011;56967;43.538;-5.646;2023-02-18T09:32:10;30.10;;;19.02;;
69703;SDS011;56967;43.538;-5.646;2023-02-18T09:34:36;28.45;;;18.38;;
69703;SDS011;56967;43.538;-5.646;2023-02-18T09:37:02;27.77;;;18.13;;
69703;SDS011;56967;43.538;-5.646;2023-02-18T09:39:28;29.52;;;18.48;;
69703;SDS011;56967;43.538;-5.646;2023-02-18T09:41:58;26.25;;;17.27;;
69703;SDS011;56967;43.538;-5.646;2023-02-18T09:44:28;27.17;;;16.70;;
69703;SDS011;56967;43.538;-5.646;2023-02-18T09:49:24;24.73;;;16.70;;
69703;SDS011;56967;43.538;-5.646;2023-02-18T09:51:51;24.33;;;17.25;;
69703;SDS011;56967;43.538;-5.646;2023-02-18T09:54:17;24.75;;;16.60;;
69703;SDS011;56967;43.538;-5.646;2023-02-18T09:56:43;27.08;;;17.50;;
69703;SDS011;56967;43.538;-5.646;2023-02-18T09:59:14;25.02;;;16.80;;
69703;SDS011;56967;43.538;-5.646;2023-02-18T10:01:40;25.20;;;17.33;;
69703;SDS011;56967;43.538;-5.646;2023-02-18T10:06:47;25.33;;;18.17;;
69703;SDS011;56967;43.538;-5.646;2023-02-18T10:09:16;22.48;;;16.10;;
69703;SDS011;56967;43.538;-5.646;2023-02-18T10:11:42;21.55;;;16.00;;
69703;SDS011;56967;43.538;-5.646;2023-02-18T10:14:10;27.88;;;17.65;;
69703;SDS011;56967;43.538;-5.646;2023-02-18T10:16:36;24.27;;;18.23;;
69703;SDS011;56967;43.538;-5.646;2023-02-18T10:21:39;25.00;;;16.48;;
69703;SDS011;56967;43.538;-5.646;2023-02-18T10:26:34;23.50;;;17.65;;
69703;SDS011;56967;43.538;-5.646;2023-02-18T10:29:00;25.42;;;17.67;;
69703;SDS011;56967;43.538;-5.646;2023-02-18T10:31:35;27.40;;;17.67;;
69703;SDS011;56967;43.538;-5.646;2023-02-18T10:36:36;27.63;;;17.70;;
69703;SDS011;56967;43.538;-5.646;2023-02-18T10:44:27;28.92;;;19.10;;
69703;SDS011;56967;43.538;-5.646;2023-02-18T10:52:22;28.02;;;17.65;;
69703;SDS011;56967;43.538;-5.646;2023-02-18T10:57:18;30.45;;;17.17;;
69703;SDS011;56967;43.538;-5.646;2023-02-18T10:59:53;38.08;;;18.92;;
69703;SDS011;56967;43.538;-5.646;2023-02-18T11:02:19;48.35;;;19.95;;
69703;SDS011;56967;43.538;-5.646;2023-02-18T11:04:44;35.55;;;16.95;;
69703;SDS011;56967;43.538;-5.646;2023-02-18T11:07:23;31.48;;;16.65;;
69703;SDS011;56967;43.538;-5.646;2023-02-18T11:12:19;34.50;;;16.98;;
69703;SDS011;56967;43.538;-5.646;2023-02-18T11:14:48;33.60;;;17.60;;
69703;SDS011;56967;43.538;-5.646;2023-02-18T11:17:18;34.47;;;16.92;;
69703;SDS011;56967;43.538;-5.646;2023-02-18T11:19:50;24.65;;;16.02;;
69703;SDS011;56967;43.538;-5.646;2023-02-18T11:22:20;26.40;;;15.43;;
69703;SDS011;56967;43.538;-5.646;2023-02-18T11:24:46;35.13;;;17.08;;
69703;SDS011;56967;43.538;-5.646;2023-02-18T11:27:20;28.85;;;16.50;;
69703;SDS011;56967;43.538;-5.646;2023-02-18T11:29:48;35.08;;;17.38;;
69703;SDS011;56967;43.538;-5.646;2023-02-18T11:32:14;39.58;;;17.30;;
69703;SDS011;56967;43.538;-5.646;2023-02-18T11:34:40;34.72;;;16.63;;
69703;SDS011;56967;43.538;-5.646;2023-02-18T11:37:08;34.40;;;15.90;;
69703;SDS011;56967;43.538;-5.646;2023-02-18T11:39:34;28.60;;;13.38;;
69703;SDS011;56967;43.538;-5.646;2023-02-18T11:42:05;34.97;;;15.77;;
69703;SDS011;56967;43.538;-5.646;2023-02-18T11:44:38;28.95;;;14.18;;
69703;SDS011;56967;43.538;-5.646;2023-02-18T11:47:16;27.45;;;14.20;;
69703;SDS011;56967;43.538;-5.646;2023-02-18T11:50:31;29.90;;;14.82;;
69703;SDS011;56967;43.538;-5.646;2023-02-18T11:52:32;35.80;;;16.25;;
69703;SDS011;56967;43.538;-5.646;2023-02-18T11:57:27;34.10;;;15.57;;
69703;SDS011;56967;43.538;-5.646;2023-02-18T11:59:52;30.08;;;15.23;;
69703;SDS011;56967;43.538;-5.646;2023-02-18T12:04:49;37.97;;;15.77;;
69703;SDS011;56967;43.538;-5.646;2023-02-18T12:07:18;29.63;;;15.50;;
69703;SDS011;56967;43.538;-5.646;2023-02-18T12:09:54;35.38;;;15.55;;
69703;SDS011;56967;43.538;-5.646;2023-02-18T12:12:25;33.03;;;15.95;;
69703;SDS011;56967;43.538;-5.646;2023-02-18T12:14:53;39.28;;;16.30;;
69703;SDS011;56967;43.538;-5.646;2023-02-18T12:27:57;39.00;;;15.80;;
69703;SDS011;56967;43.538;-5.646;2023-02-18T12:31:16;32.13;;;14.88;;
69703;SDS011;56967;43.538;-5.646;2023-02-18T12:41:28;42.63;;;14.98;;
69703;SDS011;56967;43.538;-5.646;2023-02-18T12:44:16;25.90;;;14.40;;
69703;SDS011;56967;43.538;-5.646;2023-02-18T12:49:14;26.08;;;14.50;;
69703;SDS011;56967;43.538;-5.646;2023-02-18T12:54:12;33.55;;;15.50;;
69703;SDS011;56967;43.538;-5.646;2023-02-18T13:01:55;37.88;;;15.63;;
69703;SDS011;56967;43.538;-5.646;2023-02-18T13:15:19;37.45;;;16.35;;
69703;SDS011;56967;43.538;-5.646;2023-02-18T13:17:45;35.60;;;16.83;;
69703;SDS011;56967;43.538;-5.646;2023-02-18T13:20:19;30.45;;;17.15;;
69703;SDS011;56967;43.538;-5.646;2023-02-18T13:22:45;35.95;;;17.67;;
69703;SDS011;56967;43.538;-5.646;2023-02-18T13:25:14;32.08;;;16.30;;
69703;SDS011;56967;43.538;-5.646;2023-02-18T13:30:27;43.40;;;18.05;;
69703;SDS011;56967;43.538;-5.646;2023-02-18T13:33:11;39.60;;;18.20;;
69703;SDS011;56967;43.538;-5.646;2023-02-18T13:36:00;41.80;;;17.45;;
69703;SDS011;56967;43.538;-5.646;2023-02-18T13:41:10;33.85;;;15.80;;
69703;SDS011;56967;43.538;-5.646;2023-02-18T13:43:36;30.23;;;15.05;;
69703;SDS011;56967;43.538;-5.646;2023-02-18T13:46:07;30.38;;;15.75;;
69703;SDS011;56967;43.538;-5.646;2023-02-18T13:48:39;29.83;;;16.35;;
69703;SDS011;56967;43.538;-5.646;2023-02-18T13:51:07;43.28;;;15.73;;
69703;SDS011;56967;43.538;-5.646;2023-02-18T13:53:41;32.53;;;14.25;;
69703;SDS011;56967;43.538;-5.646;2023-02-18T13:58:37;30.45;;;15.13;;
69703;SDS011;56967;43.538;-5.646;2023-02-18T14:09:01;34.67;;;14.55;;
69703;SDS011;56967;43.538;-5.646;2023-02-18T14:16:26;38.83;;;16.02;;
69703;SDS011;56967;43.538;-5.646;2023-02-18T14:19:25;28.27;;;13.82;;
69703;SDS011;56967;43.538;-5.646;2023-02-18T14:21:51;35.58;;;14.63;;
69703;SDS011;56967;43.538;-5.646;2023-02-18T14:24:46;36.08;;;14.60;;
69703;SDS011;56967;43.538;-5.646;2023-02-18T14:27:15;26.00;;;13.38;;
69703;SDS011;56967;43.538;-5.646;2023-02-18T14:29:40;37.53;;;13.25;;
69703;SDS011;56967;43.538;-5.646;2023-02-18T14:32:08;29.33;;;13.77;;
69703;SDS011;56967;43.538;-5.646;2023-02-18T14:34:42;26.27;;;12.40;;
69703;SDS011;56967;43.538;-5.646;2023-02-18T14:50:18;15.80;;;8.80;;
69703;SDS011;56967;43.538;-5.646;2023-02-18T14:52:45;22.20;;;9.52;;
69703;SDS011;56967;43.538;-5.646;2023-02-18T14:55:27;20.25;;;10.25;;
69703;SDS011;56967;43.538;-5.646;2023-02-18T14:57:54;33.15;;;10.63;;
69703;SDS011;56967;43.538;-5.646;2023-02-18T15:00:21;30.55;;;10.48;;
69703;SDS011;56967;43.538;-5.646;2023-02-18T15:02:48;26.00;;;10.18;;
69703;SDS011;56967;43.538;-5.646;2023-02-18T15:05:21;22.92;;;10.02;;
69703;SDS011;56967;43.538;-5.646;2023-02-18T15:08:00;34.47;;;9.95;;
69703;SDS011;56967;43.538;-5.646;2023-02-18T15:10:37;23.77;;;9.48;;
69703;SDS011;56967;43.538;-5.646;2023-02-18T15:13:06;23.77;;;8.73;;
69703;SDS011;56967;43.538;-5.646;2023-02-18T15:15:33;26.70;;;9.93;;
69703;SDS011;56967;43.538;-5.646;2023-02-18T15:17:59;26.33;;;9.00;;
69703;SDS011;56967;43.538;-5.646;2023-02-18T15:20:33;29.33;;;9.70;;
69703;SDS011;56967;43.538;-5.646;2023-02-18T15:22:58;29.58;;;9.05;;
69703;SDS011;56967;43.538;-5.646;2023-02-18T15:25:24;28.08;;;10.68;;
69703;SDS011;56967;43.538;-5.646;2023-02-18T15:27:50;28.58;;;9.43;;
69703;SDS011;56967;43.538;-5.646;2023-02-18T15:30:25;17.80;;;8.77;;
69703;SDS011;56967;43.538;-5.646;2023-02-18T15:32:56;17.48;;;7.53;;
69703;SDS011;56967;43.538;-5.646;2023-02-18T15:35:29;17.52;;;8.00;;
69703;SDS011;56967;43.538;-5.646;2023-02-18T15:37:56;17.92;;;8.63;;
69703;SDS011;56967;43.538;-5.646;2023-02-18T15:40:23;20.08;;;8.00;;
69703;SDS011;56967;43.538;-5.646;2023-02-18T15:42:49;20.45;;;7.88;;
69703;SDS011;56967;43.538;-5.646;2023-02-18T15:45:19;19.08;;;7.65;;
69703;SDS011;56967;43.538;-5.646;2023-02-18T15:47:54;17.13;;;7.15;;
69703;SDS011;56967;43.538;-5.646;2023-02-18T15:50:27;17.30;;;8.17;;
69703;SDS011;56967;43.538;-5.646;2023-02-18T15:52:54;24.35;;;8.52;;
69703;SDS011;56967;43.538;-5.646;2023-02-18T15:57:52;21.40;;;8.27;;
69703;SDS011;56967;43.538;-5.646;2023-02-18T16:00:19;18.15;;;7.90;;
69703;SDS011;56967;43.538;-5.646;2023-02-18T16:02:55;26.38;;;8.93;;
69703;SDS011;56967;43.538;-5.646;2023-02-18T16:05:26;34.17;;;9.40;;
69703;SDS011;56967;43.538;-5.646;2023-02-18T16:07:56;32.50;;;9.85;;
69703;SDS011;56967;43.538;-5.646;2023-02-18T16:10:23;26.30;;;9.45;;
69703;SDS011;56967;43.538;-5.646;2023-02-18T16:12:49;25.10;;;9.68;;
69703;SDS011;56967;43.538;-5.646;2023-02-18T16:15:25;27.05;;;8.70;;
69703;SDS011;56967;43.538;-5.646;2023-02-18T16:17:51;19.88;;;8.13;;
69703;SDS011;56967;43.538;-5.646;2023-02-18T16:22:43;21.33;;;8.65;;
69703;SDS011;56967;43.538;-5.646;2023-02-18T16:27:37;21.88;;;9.68;;
69703;SDS011;56967;43.538;-5.646;2023-02-18T16:30:14;22.48;;;9.23;;
69703;SDS011;56967;43.538;-5.646;2023-02-18T16:32:40;28.30;;;9.77;;
69703;SDS011;56967;43.538;-5.646;2023-02-18T16:35:05;21.38;;;8.85;;
69703;SDS011;56967;43.538;-5.646;2023-02-18T16:37:31;16.70;;;8.20;;
69703;SDS011;56967;43.538;-5.646;2023-02-18T16:40:02;24.25;;;8.65;;
69703;SDS011;56967;43.538;-5.646;2023-02-18T16:42:28;21.45;;;9.60;;
69703;SDS011;56967;43.538;-5.646;2023-02-18T16:44:53;22.55;;;9.85;;
69703;SDS011;56967;43.538;-5.646;2023-02-18T16:47:19;19.13;;;9.35;;
69703;SDS011;56967;43.538;-5.646;2023-02-18T16:49:45;16.55;;;9.90;;
69703;SDS011;56967;43.538;-5.646;2023-02-18T16:52:11;19.92;;;9.85;;
69703;SDS011;56967;43.538;-5.646;2023-02-18T16:54:39;21.30;;;9.95;;